createdAt,value
2019-04-26T00:01:19.013Z,2.47
2019-04-26T00:03:46.901Z,2.30
2019-04-26T00:06:14.721Z,2.58
2019-04-26T00:08:44.422Z,2.37
2019-04-26T00:11:28.735Z,2.37
2019-04-26T00:14:14.272Z,2.65
2019-04-26T00:16:47.058Z,2.50
2019-04-26T00:19:14.362Z,2.25
2019-04-26T00:21:42.112Z,2.40
2019-04-26T00:24:09.703Z,2.55
2019-04-26T00:26:37.491Z,2.47
2019-04-26T00:29:04.761Z,2.20
2019-04-26T00:31:32.080Z,2.45
2019-04-26T00:33:59.415Z,2.90
2019-04-26T00:36:26.662Z,2.60
2019-04-26T00:38:54.068Z,2.33
2019-04-26T00:41:22.605Z,2.65
2019-04-26T00:43:49.988Z,2.83
2019-04-26T00:46:18.842Z,2.50
2019-04-26T00:48:46.660Z,2.80
2019-04-26T00:51:15.292Z,2.45
2019-04-26T00:53:45.788Z,2.65
2019-04-26T00:56:14.636Z,2.50
2019-04-26T00:58:42.376Z,2.30
2019-04-26T01:01:10.275Z,2.58
2019-04-26T01:03:37.776Z,2.67
2019-04-26T01:06:08.411Z,2.35
2019-04-26T01:08:35.660Z,2.30
2019-04-26T01:11:02.985Z,2.55
2019-04-26T01:13:30.233Z,2.72
2019-04-26T01:15:57.480Z,3.00
2019-04-26T01:18:24.720Z,2.40
2019-04-26T01:20:54.574Z,2.25
2019-04-26T01:23:25.071Z,1.92
2019-04-26T01:25:59.936Z,2.30
2019-04-26T01:28:34.804Z,2.15
2019-04-26T01:31:04.048Z,2.30
2019-04-26T01:33:34.432Z,2.10
2019-04-26T01:36:12.335Z,2.20
2019-04-26T01:38:31.860Z,2.05
2019-04-26T01:41:02.954Z,2.27
2019-04-26T01:44:05.361Z,2.10
2019-04-26T01:46:39.243Z,2.22
2019-04-26T01:49:10.081Z,2.12
2019-04-26T01:51:42.533Z,2.02
2019-04-26T01:54:13.463Z,2.17
2019-04-26T01:56:40.819Z,2.10
2019-04-26T01:59:11.380Z,2.05
2019-04-26T02:02:16.687Z,1.95
2019-04-26T02:04:46.883Z,1.72
2019-04-26T02:07:16.600Z,1.80
2019-04-26T02:09:43.848Z,1.85
2019-04-26T02:12:11.375Z,1.90
2019-04-26T02:14:39.017Z,1.72
2019-04-26T02:17:06.255Z,1.80
2019-04-26T02:19:33.748Z,1.85
2019-04-26T02:22:27.799Z,1.75
2019-04-26T02:24:55.670Z,2.00
2019-04-26T02:27:32.535Z,1.42
2019-04-26T02:29:59.976Z,1.70
2019-04-26T02:32:28.979Z,1.67
2019-04-26T02:34:56.909Z,1.70
2019-04-26T02:37:24.124Z,1.72
2019-04-26T02:39:53.399Z,1.60
2019-04-26T02:42:28.810Z,1.50
2019-04-26T02:45:32.275Z,1.70
2019-04-26T02:48:29.075Z,1.60
2019-04-26T02:51:01.287Z,1.20
2019-04-26T02:53:42.488Z,1.42
2019-04-26T02:56:36.215Z,1.70
2019-04-26T02:59:42.711Z,1.30
2019-04-26T03:02:20.724Z,1.45
2019-04-26T03:04:51.524Z,1.50
2019-04-26T03:07:33.449Z,1.55
2019-04-26T03:10:01.981Z,1.50
2019-04-26T03:12:34.551Z,1.50
2019-04-26T03:15:13.999Z,1.60
2019-04-26T03:17:54.469Z,1.52
2019-04-26T03:20:29.069Z,1.50
2019-04-26T03:23:12.720Z,1.52
2019-04-26T03:26:03.730Z,1.47
2019-04-26T03:28:46.275Z,1.62
2019-04-26T03:31:53.513Z,1.70
2019-04-26T03:34:52.946Z,1.35
2019-04-26T03:37:49.039Z,1.60
2019-04-26T03:40:30.713Z,1.30
2019-04-26T03:43:36.843Z,1.40
2019-04-26T03:46:26.122Z,1.67
2019-04-26T03:49:15.108Z,1.85
2019-04-26T03:52:15.994Z,1.70
2019-04-26T03:54:47.052Z,1.30
2019-04-26T04:00:23.613Z,1.70
2019-04-26T04:03:27.612Z,1.50
2019-04-26T04:05:57.992Z,1.55
2019-04-26T04:08:43.817Z,1.50
2019-04-26T04:11:15.869Z,1.52
2019-04-26T04:13:57.442Z,1.80
2019-04-26T04:16:49.053Z,1.65
2019-04-26T04:20:03.658Z,2.17
2019-04-26T04:22:39.074Z,2.10
2019-04-26T04:25:10.037Z,1.92
2019-04-26T04:27:47.251Z,1.98
2019-04-26T04:30:45.886Z,1.87
2019-04-26T04:34:06.976Z,2.20
2019-04-26T04:36:48.833Z,2.20
2019-04-26T04:42:30.516Z,2.20
2019-04-26T04:45:57.809Z,2.10
2019-04-26T04:48:50.565Z,2.17
2019-04-26T04:51:44.874Z,2.20
2019-04-26T04:54:17.664Z,2.42
2019-04-26T04:57:31.590Z,2.12
2019-04-26T05:00:20.652Z,2.12
2019-04-26T05:03:00.684Z,2.40
2019-04-26T05:06:07.705Z,2.67
2019-04-26T05:09:06.364Z,2.55
2019-04-26T05:12:12.186Z,2.55
2019-04-26T05:15:13.458Z,2.33
2019-04-26T05:21:19.081Z,2.00
2019-04-26T05:24:34.237Z,2.17
2019-04-26T05:27:37.908Z,2.22
2019-04-26T05:31:09.983Z,2.70
2019-04-26T05:33:54.645Z,2.60
2019-04-26T05:36:54.813Z,2.40
2019-04-26T05:39:49.234Z,2.50
2019-04-26T05:42:58.580Z,2.52
2019-04-26T05:46:11.248Z,2.50
2019-04-26T05:49:37.003Z,2.62
2019-04-26T05:52:50.104Z,2.77
2019-04-26T05:56:25.184Z,2.60
2019-04-26T05:59:35.736Z,2.70
2019-04-26T06:02:36.884Z,2.50
2019-04-26T06:05:56.596Z,2.40
2019-04-26T06:09:03.884Z,2.60
2019-04-26T06:11:41.472Z,2.52
2019-04-26T06:14:40.849Z,2.77
2019-04-26T06:17:51.618Z,2.98
2019-04-26T06:20:58.016Z,2.95
2019-04-26T06:24:15.152Z,2.77
2019-04-26T06:27:24.239Z,2.60
2019-04-26T06:30:03.176Z,3.12
2019-04-26T06:32:42.415Z,3.40
2019-04-26T06:35:20.559Z,2.95
2019-04-26T06:38:51.652Z,3.08
2019-04-26T06:42:15.817Z,3.35
2019-04-26T06:45:32.934Z,3.08
2019-04-26T06:48:10.401Z,2.90
2019-04-26T06:50:44.699Z,3.12
2019-04-26T06:53:39.141Z,3.22
2019-04-26T06:56:38.155Z,3.00
2019-04-26T06:59:36.670Z,3.92
2019-04-26T07:02:14.376Z,3.65
2019-04-26T07:05:04.801Z,3.70
2019-04-26T07:07:45.872Z,4.17
2019-04-26T07:10:56.561Z,3.47
2019-04-26T07:13:41.684Z,3.58
2019-04-26T07:16:32.688Z,3.50
2019-04-26T07:19:21.855Z,3.90
2019-04-26T07:22:44.132Z,3.50
2019-04-26T07:25:48.555Z,3.45
2019-04-26T07:28:55.589Z,3.45
2019-04-26T07:31:30.139Z,3.80
2019-04-26T07:34:33.688Z,3.70
2019-04-26T07:37:57.520Z,3.75
2019-04-26T07:41:23.675Z,3.20
2019-04-26T07:44:25.855Z,4.03
2019-04-26T07:47:26.711Z,4.33
2019-04-26T07:50:37.645Z,3.70
2019-04-26T07:53:34.360Z,3.55
2019-04-26T07:56:15.246Z,4.25
2019-04-26T07:59:37.888Z,3.10
2019-04-26T08:02:31.072Z,2.90
2019-04-26T08:05:09.404Z,2.77
2019-04-26T08:07:42.487Z,3.45
2019-04-26T08:10:17.547Z,3.22
2019-04-26T08:12:59.723Z,3.20
2019-04-26T08:15:47.659Z,3.12
2019-04-26T08:18:24.910Z,3.00
2019-04-26T08:20:58.333Z,3.20
2019-04-26T08:23:42.187Z,2.58
2019-04-26T08:26:09.246Z,2.95
2019-04-26T08:28:39.187Z,3.00
2019-04-26T08:31:10.866Z,2.80
2019-04-26T08:33:48.591Z,2.45
2019-04-26T08:36:17.668Z,3.12
2019-04-26T08:38:48.895Z,2.90
2019-04-26T08:41:18.123Z,2.50
2019-04-26T08:44:14.481Z,2.90
2019-04-26T08:46:50.736Z,3.20
2019-04-26T08:49:26.020Z,2.90
2019-04-26T08:51:56.020Z,3.20
2019-04-26T08:57:02.802Z,2.80
2019-04-26T08:59:34.708Z,3.40
2019-04-26T09:02:19.185Z,2.87
2019-04-26T09:05:06.628Z,2.52
2019-04-26T09:07:36.549Z,3.22
2019-04-26T09:10:10.622Z,1.85
2019-04-26T09:15:07.925Z,2.58
2019-04-26T09:17:35.172Z,2.05
2019-04-26T09:20:06.966Z,2.80
2019-04-26T09:23:03.838Z,2.00
2019-04-26T09:25:37.080Z,1.90
2019-04-26T09:28:21.204Z,2.25
2019-04-26T09:31:21.134Z,2.45
2019-04-26T09:33:52.448Z,2.20
2019-04-26T09:36:19.996Z,2.85
2019-04-26T09:38:47.244Z,2.12
2019-04-26T09:41:14.509Z,2.67
2019-04-26T09:43:46.316Z,2.85
2019-04-26T09:46:33.326Z,2.55
2019-04-26T09:49:09.975Z,2.40
2019-04-26T09:51:39.134Z,2.40
2019-04-26T09:54:06.801Z,2.35
2019-04-26T09:56:34.454Z,2.45
2019-04-26T09:59:05.560Z,2.70
2019-04-26T10:01:33.152Z,2.33
2019-04-26T10:04:00.475Z,2.47
2019-04-26T10:06:29.737Z,2.98
2019-04-26T10:08:56.986Z,3.27
2019-04-26T10:11:26.925Z,3.17
2019-04-26T10:14:01.963Z,3.17
2019-04-26T10:16:42.396Z,2.95
2019-04-26T10:19:15.735Z,2.45
2019-04-26T10:21:42.984Z,2.65
2019-04-26T10:24:10.348Z,2.08
2019-04-26T10:26:37.578Z,2.27
2019-04-26T10:29:04.848Z,3.40
2019-04-26T10:31:32.086Z,2.92
2019-04-26T10:33:59.335Z,3.37
2019-04-26T10:36:30.265Z,2.27
2019-04-26T10:38:58.430Z,2.22
2019-04-26T10:41:24.996Z,2.60
2019-04-26T10:43:52.318Z,2.35
2019-04-26T10:46:20.091Z,2.92
2019-04-26T10:48:49.806Z,2.05
2019-04-26T10:51:24.079Z,2.45
2019-04-26T10:54:05.902Z,2.45
2019-04-26T10:59:23.713Z,1.90
2019-04-26T11:01:51.081Z,1.70
2019-04-26T11:04:18.360Z,2.45
2019-04-26T11:06:45.616Z,1.98
2019-04-26T11:09:12.903Z,2.22
2019-04-26T11:11:40.141Z,2.15
2019-04-26T11:14:07.348Z,2.20
2019-04-26T11:16:37.124Z,2.12
2019-04-26T11:19:03.799Z,2.60
2019-04-26T11:21:31.080Z,2.05
2019-04-26T11:23:58.394Z,1.95
2019-04-26T11:26:25.633Z,2.22
2019-04-26T11:28:55.839Z,2.37
2019-04-26T11:31:23.489Z,4.53
2019-04-26T11:33:51.277Z,2.20
2019-04-26T11:36:18.531Z,2.40
2019-04-26T11:38:45.776Z,2.90
2019-04-26T11:41:13.092Z,1.90
2019-04-26T11:43:40.323Z,2.10
2019-04-26T11:46:07.627Z,2.80
2019-04-26T11:48:35.177Z,2.30
2019-04-26T11:51:02.566Z,2.33
2019-04-26T11:53:29.955Z,2.60
2019-04-26T11:56:00.206Z,2.40
2019-04-26T11:58:26.555Z,2.67
2019-04-26T12:00:58.058Z,2.70
2019-04-26T12:03:25.989Z,4.30
2019-04-26T12:06:24.756Z,3.37
2019-04-26T12:09:11.552Z,4.00
2019-04-26T12:11:49.041Z,3.90
2019-04-26T12:14:19.644Z,3.77
2019-04-26T12:16:47.076Z,3.30
2019-04-26T12:19:06.672Z,2.80
2019-04-26T12:21:35.009Z,3.95
2019-04-26T12:24:02.467Z,3.02
2019-04-26T12:26:42.144Z,4.25
2019-04-26T12:28:58.964Z,3.47
2019-04-26T12:31:26.249Z,3.65
2019-04-26T12:33:53.726Z,3.70
2019-04-26T12:36:20.996Z,3.45
2019-04-26T12:38:48.255Z,3.10
2019-04-26T12:41:17.300Z,3.08
2019-04-26T12:43:44.689Z,2.95
2019-04-26T12:46:37.722Z,3.27
2019-04-26T12:49:05.043Z,3.30
2019-04-26T12:51:32.322Z,3.42
2019-04-26T12:53:59.669Z,2.50
2019-04-26T12:56:31.356Z,2.62
2019-04-26T12:58:56.122Z,2.25
2019-04-26T13:01:23.428Z,2.05
2019-04-26T13:04:04.001Z,2.30
2019-04-26T13:06:33.541Z,2.00
2019-04-26T13:09:00.932Z,2.02
2019-04-26T13:11:57.799Z,1.98
2019-04-26T13:14:50.452Z,1.85
2019-04-26T13:17:21.094Z,2.52
2019-04-26T13:19:49.613Z,2.27
2019-04-26T13:22:17.672Z,2.15
2019-04-26T13:24:44.920Z,2.37
2019-04-26T13:27:12.392Z,2.17
2019-04-26T13:29:39.768Z,2.00
2019-04-26T13:32:07.120Z,2.30
2019-04-26T13:34:37.298Z,2.47
2019-04-26T13:37:04.094Z,2.45
2019-04-26T13:39:31.451Z,2.30
2019-04-26T13:42:04.620Z,2.27
2019-04-26T13:44:46.054Z,2.22
2019-04-26T13:47:50.502Z,2.27
2019-04-26T13:50:34.216Z,2.50
2019-04-26T13:53:01.476Z,2.58
2019-04-26T13:55:29.488Z,2.20
2019-04-26T13:57:57.795Z,2.20
2019-04-26T14:00:28.409Z,2.50
2019-04-26T14:02:55.688Z,2.15
2019-04-26T14:05:23.064Z,2.10
2019-04-26T14:07:50.327Z,1.98
2019-04-26T14:10:18.154Z,2.08
2019-04-26T14:12:46.276Z,1.87
2019-04-26T14:15:14.599Z,1.80
2019-04-26T14:17:41.928Z,2.00
2019-04-26T14:20:09.262Z,2.00
2019-04-26T14:22:42.411Z,2.15
2019-04-26T14:25:12.763Z,1.40
2019-04-26T14:27:49.788Z,1.82
2019-04-26T14:30:15.047Z,1.70
2019-04-26T14:32:42.718Z,1.52
2019-04-26T14:35:11.448Z,1.60
2019-04-26T14:37:39.248Z,1.72
2019-04-26T14:40:16.736Z,1.87
2019-04-26T14:42:42.164Z,1.52
2019-04-26T14:45:07.259Z,1.70
2019-04-26T14:47:46.849Z,1.85
2019-04-26T14:50:13.858Z,1.62
2019-04-26T14:52:34.208Z,1.72
2019-04-26T14:55:01.551Z,1.50
2019-04-26T14:57:31.657Z,1.90
2019-04-26T14:59:58.953Z,1.70
2019-04-26T15:02:48.581Z,1.80
2019-04-26T15:05:33.897Z,1.70
2019-04-26T15:08:03.931Z,1.55
2019-04-26T15:10:44.392Z,1.40
2019-04-26T15:13:14.904Z,1.40
2019-04-26T15:15:35.000Z,1.70
2019-04-26T15:18:03.006Z,1.62
2019-04-26T15:20:30.343Z,1.57
2019-04-26T15:22:57.687Z,1.87
2019-04-26T15:25:24.916Z,1.67
2019-04-26T15:27:52.550Z,2.05
2019-04-26T15:30:19.823Z,1.57
2019-04-26T15:32:47.084Z,1.67
2019-04-26T15:35:17.590Z,1.40
2019-04-26T15:37:43.587Z,1.57
2019-04-26T15:40:22.590Z,1.67
2019-04-26T15:43:14.423Z,1.50
2019-04-26T15:45:42.580Z,1.75
2019-04-26T15:48:23.483Z,1.77
2019-04-26T15:50:53.592Z,1.77
2019-04-26T15:53:22.085Z,1.90
2019-04-26T15:55:49.352Z,1.85
2019-04-26T15:58:16.643Z,1.80
2019-04-26T16:00:43.892Z,1.67
2019-04-26T16:03:12.814Z,1.80
2019-04-26T16:05:40.233Z,1.77
2019-04-26T16:08:07.505Z,1.50
2019-04-26T16:10:38.340Z,1.00
2019-04-26T16:13:16.136Z,1.40
2019-04-26T16:15:33.187Z,1.40
2019-04-26T16:18:00.432Z,1.60
2019-04-26T16:20:31.607Z,1.50
2019-04-26T16:23:00.373Z,1.57
2019-04-26T16:25:26.159Z,1.50
2019-04-26T16:28:12.963Z,1.60
2019-04-26T16:30:58.526Z,1.50
2019-04-26T16:33:33.355Z,1.50
2019-04-26T16:36:02.707Z,1.52
2019-04-26T16:38:30.902Z,1.50
2019-04-26T16:40:58.206Z,1.80
2019-04-26T16:45:54.666Z,1.77
2019-04-26T16:48:25.565Z,2.20
2019-04-26T16:50:53.100Z,1.62
2019-04-26T16:53:42.591Z,1.40
2019-04-26T16:58:18.749Z,1.60
2019-04-26T17:00:33.601Z,1.82
2019-04-26T17:00:43.156Z,1.72
2019-04-26T17:00:51.522Z,4.35
2019-04-26T17:03:15.173Z,1.42
2019-04-26T17:05:51.205Z,1.40
2019-04-26T17:08:12.981Z,1.77
2019-04-26T17:10:41.805Z,1.50
2019-04-26T17:13:09.510Z,1.70
2019-04-26T17:15:36.662Z,1.52
2019-04-26T17:18:03.919Z,1.47
2019-04-26T17:20:32.204Z,1.70
2019-04-26T17:23:23.992Z,1.60
2019-04-26T17:26:16.688Z,1.60
2019-04-26T17:28:43.954Z,1.52
2019-04-26T17:31:12.474Z,1.60
2019-04-26T17:33:39.944Z,1.40
2019-04-26T17:36:07.196Z,1.45
2019-04-26T17:38:35.201Z,1.67
2019-04-26T17:41:06.414Z,1.87
2019-04-26T17:43:32.929Z,1.70
2019-04-26T17:46:01.118Z,1.70
2019-04-26T17:48:28.513Z,1.32
2019-04-26T17:50:55.844Z,1.60
2019-04-26T17:53:30.723Z,1.52
2019-04-26T17:55:54.791Z,2.30
2019-04-26T17:58:27.488Z,1.80
2019-04-26T18:00:51.550Z,1.80
2019-04-26T18:03:19.110Z,1.90
2019-04-26T18:05:56.522Z,1.60
2019-04-26T18:08:33.680Z,1.57
2019-04-26T18:10:45.132Z,1.77
2019-04-26T18:13:16.251Z,1.70
2019-04-26T18:15:46.849Z,1.65
2019-04-26T18:18:29.088Z,1.67
2019-04-26T18:21:34.321Z,1.55
2019-04-26T18:24:02.870Z,1.60
2019-04-26T18:26:30.315Z,1.75
2019-04-26T18:28:57.565Z,1.85
2019-04-26T18:31:28.773Z,2.12
2019-04-26T18:33:54.798Z,2.00
2019-04-26T18:36:23.587Z,2.30
2019-04-26T18:38:50.968Z,2.30
2019-04-26T18:41:18.225Z,1.82
2019-04-26T18:43:45.534Z,2.12
2019-04-26T18:46:24.153Z,1.52
2019-04-26T18:48:51.509Z,1.85
2019-04-26T18:51:18.762Z,1.55
2019-04-26T18:54:05.028Z,1.52
2019-04-26T18:56:39.741Z,1.35
2019-04-26T18:59:07.388Z,1.60
2019-04-26T19:01:34.684Z,1.52
2019-04-26T19:04:09.469Z,1.30
2019-04-26T19:06:33.797Z,1.77
2019-04-26T19:09:02.431Z,1.80
2019-04-26T19:11:30.147Z,2.00
2019-04-26T19:14:15.055Z,1.95
2019-04-26T19:16:58.909Z,1.92
2019-04-26T19:19:54.384Z,2.02
2019-04-26T19:22:22.517Z,2.10
2019-04-26T19:24:55.877Z,1.80
2019-04-26T19:27:22.313Z,2.00
2019-04-26T19:29:48.358Z,1.72
2019-04-26T19:32:15.672Z,1.95
2019-04-26T19:34:42.936Z,1.70
2019-04-26T19:37:10.271Z,2.40
2019-04-26T19:39:37.601Z,1.62
2019-04-26T19:42:06.214Z,1.60
2019-04-26T19:44:33.851Z,1.60
2019-04-26T19:47:14.949Z,1.35
2019-04-26T19:52:42.874Z,1.47
2019-04-26T19:55:35.502Z,1.67
2019-04-26T19:58:09.685Z,1.80
2019-04-26T20:00:38.605Z,1.50
2019-04-26T20:03:08.523Z,1.60
2019-04-26T20:05:36.371Z,1.90
2019-04-26T20:08:06.022Z,2.35
2019-04-26T20:10:34.608Z,1.60
2019-04-26T20:13:03.059Z,1.90
2019-04-26T20:15:31.803Z,2.15
2019-04-26T20:18:01.310Z,2.15
2019-04-26T20:20:34.528Z,2.10
2019-04-26T20:22:59.358Z,2.40
2019-04-26T20:25:29.979Z,2.55
2019-04-26T20:27:59.912Z,2.50
2019-04-26T20:30:51.556Z,2.60
2019-04-26T20:33:18.930Z,3.25
2019-04-26T20:35:47.097Z,3.15
2019-04-26T20:38:14.421Z,3.22
2019-04-26T20:40:43.562Z,2.87
2019-04-26T20:43:22.411Z,3.15
2019-04-26T20:45:42.533Z,3.33
2019-04-26T20:48:09.369Z,3.15
2019-04-26T20:50:36.925Z,3.00
2019-04-26T20:53:04.575Z,3.50
2019-04-26T20:55:34.429Z,3.42
2019-04-26T20:58:06.996Z,3.83
2019-04-26T21:00:31.617Z,3.58
2019-04-26T21:03:01.252Z,4.12
2019-04-26T21:05:28.216Z,4.40
2019-04-26T21:07:55.460Z,4.00
2019-04-26T21:10:25.617Z,3.75
2019-04-26T21:12:54.806Z,3.75
2019-04-26T21:15:24.044Z,3.40
2019-04-26T21:17:51.788Z,3.65
2019-04-26T21:20:19.495Z,3.90
2019-04-26T21:22:46.778Z,4.08
2019-04-26T21:25:27.732Z,4.12
2019-04-26T21:28:06.650Z,3.95
2019-04-26T21:30:55.856Z,4.05
2019-04-26T21:33:28.779Z,4.28
2019-04-26T21:36:01.938Z,4.92
2019-04-26T21:38:52.971Z,5.20
2019-04-26T21:41:23.635Z,5.28
2019-04-26T21:43:52.951Z,5.40
2019-04-26T21:46:20.553Z,5.28
2019-04-26T21:48:47.887Z,6.37
2019-04-26T21:51:16.204Z,5.85
2019-04-26T21:53:45.159Z,5.70
2019-04-26T21:56:14.579Z,5.55
2019-04-26T21:58:43.605Z,5.40
2019-04-26T22:01:19.248Z,4.75
2019-04-26T22:03:53.678Z,4.95
2019-04-26T22:06:20.035Z,5.25
2019-04-26T22:09:02.535Z,4.87
2019-04-26T22:11:28.444Z,5.30
2019-04-26T22:14:03.311Z,4.75
2019-04-26T22:16:49.199Z,4.97
2019-04-26T22:19:23.970Z,5.40
2019-04-26T22:22:05.818Z,4.97
2019-04-26T22:24:33.817Z,5.30
2019-04-26T22:27:01.199Z,5.30
2019-04-26T22:29:28.425Z,5.20
2019-04-26T22:31:55.699Z,5.80
2019-04-26T22:34:23.571Z,5.58
2019-04-26T22:36:50.984Z,6.28
2019-04-26T22:39:18.685Z,6.90
2019-04-26T22:41:46.760Z,6.15
2019-04-26T22:44:24.928Z,7.50
2019-04-26T22:47:09.102Z,6.08
2019-04-26T22:49:41.875Z,5.55
2019-04-26T22:52:10.231Z,4.92
2019-04-26T22:54:37.785Z,5.12
2019-04-26T22:57:04.018Z,5.12
2019-04-26T22:59:31.353Z,4.55
2019-04-26T23:01:58.603Z,4.40
2019-04-26T23:04:26.570Z,4.35
2019-04-26T23:06:56.412Z,4.22
2019-04-26T23:09:23.382Z,4.92
2019-04-26T23:11:57.284Z,4.87
2019-04-26T23:14:33.351Z,4.75
2019-04-26T23:17:18.905Z,4.78
2019-04-26T23:20:08.889Z,4.30
2019-04-26T23:22:36.120Z,3.40
2019-04-26T23:25:03.583Z,3.42
2019-04-26T23:27:30.972Z,3.80
2019-04-26T23:29:58.517Z,3.45
2019-04-26T23:32:26.033Z,3.90
2019-04-26T23:34:53.653Z,3.50
2019-04-26T23:37:25.942Z,3.10
2019-04-26T23:39:51.114Z,3.80
2019-04-26T23:42:18.599Z,3.27
2019-04-26T23:44:45.975Z,3.60
2019-04-26T23:47:22.499Z,3.30
2019-04-26T23:49:43.370Z,3.45
2019-04-26T23:52:14.428Z,2.90
2019-04-26T23:54:40.224Z,3.40
2019-04-26T23:57:07.595Z,3.35
2019-04-26T23:59:34.864Z,2.62
